Time;durP1;ratioP1;P1;durP2;ratioP2;P2;SDS_P1;SDS_P2;PMS_P1;PMS_P2;Temp;Humidity;BMP_temperature;BMP_pressure;BME280_temperature;BME280_humidity;BME280_pressure;Samples;Min_cycle;Max_cycle;Signal;HPM_P1;HPM_P2
2021/07/18 00:01:45;;;;;;;7.78;3.20;;;589.70;2048.00;;;;;;5096444;28;20028;-56
2021/07/18 00:04:11;;;;;;;5.75;2.85;;;589.70;2048.00;;;;;;5096495;28;20039;-51
2021/07/18 00:06:37;;;;;;;7.80;2.97;;;589.70;2022.40;;;;;;5096690;28;20100;-56
2021/07/18 00:09:05;;;;;;;5.65;2.65;;;589.60;2048.00;;;;;;5096006;28;20107;-50
2021/07/18 00:11:31;;;;;;;5.32;2.83;;;589.50;2048.00;;;;;;5096052;28;20020;-50
2021/07/18 00:13:57;;;;;;;5.78;2.90;;;589.50;2048.00;;;;;;5096019;28;20380;-50
2021/07/18 00:16:22;;;;;;;7.32;2.85;;;589.60;2048.00;;;;;;5095989;28;20395;-50
2021/07/18 00:18:48;;;;;;;6.00;2.63;;;589.60;2048.00;;;;;;5095910;28;20023;-55
2021/07/18 00:21:14;;;;;;;4.95;2.88;;;589.60;2048.00;;;;;;5095563;28;20533;-50
2021/07/18 00:23:41;;;;;;;5.60;2.63;;;589.70;2022.40;;;;;;5095344;28;20062;-51
2021/07/18 00:26:07;;;;;;;5.53;2.40;;;589.60;2048.00;;;;;;5095097;28;20028;-51
2021/07/18 00:28:33;;;;;;;4.78;2.22;;;589.60;2048.00;;;;;;5095229;28;20487;-51
2021/07/18 00:30:59;;;;;;;6.32;3.35;;;589.60;2048.00;;;;;;5095273;28;20016;-50
2021/07/18 00:33:25;;;;;;;10.57;5.25;;;589.60;2048.00;;;;;;5095172;28;20024;-52
2021/07/18 00:35:51;;;;;;;15.38;6.78;;;589.60;2048.00;;;;;;5095098;28;20042;-51
2021/07/18 00:38:17;;;;;;;11.98;5.82;;;589.60;2048.00;;;;;;5095100;28;20012;-50
2021/07/18 00:40:43;;;;;;;8.75;4.55;;;589.60;2048.00;;;;;;5095040;28;20015;-51
2021/07/18 00:43:09;;;;;;;7.88;4.03;;;589.60;2048.00;;;;;;5094927;28;20461;-51
2021/07/18 00:45:34;;;;;;;5.85;3.65;;;589.60;2048.00;;;;;;5094973;28;20020;-51
2021/07/18 00:48:00;;;;;;;4.53;2.90;;;589.60;2048.00;;;;;;5094861;28;20024;-51
2021/07/18 00:50:27;;;;;;;5.30;2.70;;;589.60;2073.60;;;;;;5094512;28;20028;-51
2021/07/18 00:52:53;;;;;;;4.22;2.88;;;589.60;2048.00;;;;;;5094719;28;20016;-51
2021/07/18 00:55:19;;;;;;;7.38;2.75;;;589.50;2048.00;;;;;;5094739;28;20376;-51
2021/07/18 00:57:48;;;;;;;4.65;2.80;;;589.50;2048.00;;;;;;5094889;28;20051;-50
2021/07/18 01:00:17;;;;;;;6.95;2.80;;;589.50;2073.60;;;;;;5094672;28;20016;-51
2021/07/18 01:02:44;;;;;;;7.00;2.92;;;589.50;2048.00;;;;;;5094556;28;20441;-50
2021/07/18 01:05:12;;;;;;;5.65;2.40;;;589.50;2073.60;;;;;;5095052;28;20035;-50
2021/07/18 01:07:38;;;;;;;6.10;3.17;;;589.50;2048.00;;;;;;5095056;28;20028;-51
2021/07/18 01:10:07;;;;;;;4.07;2.83;;;589.50;2048.00;;;;;;5093541;28;20042;-51
2021/07/18 01:12:33;;;;;;;4.40;2.97;;;589.50;2048.00;;;;;;5094828;28;20491;-55
2021/07/18 01:14:59;;;;;;;3.70;2.83;;;589.50;2073.60;;;;;;5094884;28;20024;-55
2021/07/18 01:17:26;;;;;;;4.70;2.70;;;589.50;2073.60;;;;;;5094516;28;20081;-56
2021/07/18 01:19:52;;;;;;;3.45;2.65;;;589.50;2073.60;;;;;;5094258;28;20045;-51
2021/07/18 01:22:18;;;;;;;3.83;2.75;;;589.60;2073.60;;;;;;5094154;28;20024;-51
2021/07/18 01:24:44;;;;;;;4.43;2.85;;;589.50;2073.60;;;;;;5094070;28;20023;-51
2021/07/18 01:27:10;;;;;;;6.45;3.15;;;589.50;2073.60;;;;;;5093848;28;20048;-51
2021/07/18 01:29:36;;;;;;;3.13;2.75;;;589.60;2073.60;;;;;;5093933;28;20028;-51
2021/07/18 01:32:03;;;;;;;3.17;2.55;;;589.50;2073.60;;;;;;5094079;28;20016;-51
2021/07/18 01:34:29;;;;;;;3.58;2.42;;;589.60;2073.60;;;;;;5094177;28;20020;-54
2021/07/18 01:36:55;;;;;;;3.30;2.80;;;589.50;2073.60;;;;;;5093993;28;20031;-51
2021/07/18 01:39:22;;;;;;;3.85;3.00;;;589.50;2073.60;;;;;;5093877;28;20024;-51
2021/07/18 01:41:51;;;;;;;3.97;3.10;;;589.50;2073.60;;;;;;5093829;28;20032;-51
2021/07/18 01:44:17;;;;;;;4.22;2.95;;;589.50;2073.60;;;;;;5093843;28;20035;-51
2021/07/18 01:46:43;;;;;;;3.90;2.88;;;589.50;2073.60;;;;;;5094067;28;20062;-51
2021/07/18 01:49:11;;;;;;;4.57;3.17;;;589.40;2099.20;;;;;;5093687;28;20028;-52
2021/07/18 01:51:38;;;;;;;4.88;2.95;;;589.50;2099.20;;;;;;5093754;28;20008;-51
2021/07/18 01:54:07;;;;;;;6.63;3.40;;;589.40;2099.20;;;;;;5093678;28;20020;-51
2021/07/18 01:56:34;;;;;;;5.53;3.60;;;589.20;2150.40;;;;;;5090842;28;20026;-51
2021/07/18 01:59:00;;;;;;;4.18;3.35;;;589.20;2124.80;;;;;;5093644;28;20024;-54
2021/07/18 02:01:29;;;;;;;4.20;3.35;;;589.20;2124.80;;;;;;5092672;28;20020;-55
2021/07/18 02:03:59;;;;;;;5.00;3.20;;;589.30;2124.80;;;;;;5093974;28;20099;-51
2021/07/18 02:06:26;;;;;;;4.40;3.30;;;589.30;2099.20;;;;;;5093937;28;20020;-51
2021/07/18 02:08:57;;;;;;;6.38;3.42;;;589.40;2099.20;;;;;;5093909;28;20422;-51
2021/07/18 02:11:24;;;;;;;5.03;3.78;;;589.40;2099.20;;;;;;5093836;28;20510;-55
2021/07/18 02:13:53;;;;;;;7.60;3.53;;;589.50;2099.20;;;;;;5093857;28;20059;-51
2021/07/18 02:16:20;;;;;;;6.07;3.85;;;589.40;2099.20;;;;;;5093799;28;20028;-51
2021/07/18 02:18:46;;;;;;;6.68;3.88;;;589.50;2099.20;;;;;;5093747;28;20012;-52
2021/07/18 02:21:13;;;;;;;5.68;4.45;;;589.50;2073.60;;;;;;5093772;28;20024;-56
2021/07/18 02:23:39;;;;;;;5.78;4.10;;;589.50;2073.60;;;;;;5093699;28;20027;-55
2021/07/18 02:26:06;;;;;;;4.50;3.95;;;589.60;2073.60;;;;;;5093460;28;20024;-51
2021/07/18 02:28:32;;;;;;;5.35;3.83;;;589.60;2073.60;;;;;;5093570;28;20473;-55
2021/07/18 02:30:58;;;;;;;6.93;3.88;;;589.60;2073.60;;;;;;5093563;28;20469;-55
2021/07/18 02:33:24;;;;;;;9.57;4.03;;;589.60;2073.60;;;;;;5094195;28;20066;-54
2021/07/18 02:35:51;;;;;;;6.30;3.72;;;589.60;2099.20;;;;;;5092303;28;20028;-55
2021/07/18 02:38:17;;;;;;;5.72;3.60;;;589.60;2073.60;;;;;;5093622;28;20024;-56
2021/07/18 02:40:43;;;;;;;5.18;3.90;;;589.60;2073.60;;;;;;5094053;28;20016;-55
2021/07/18 02:43:09;;;;;;;6.22;4.13;;;589.50;2099.20;;;;;;5093830;28;20030;-51
2021/07/18 02:45:35;;;;;;;4.72;3.70;;;589.60;2073.60;;;;;;5093826;28;20020;-51
2021/07/18 02:48:00;;;;;;;9.25;4.15;;;589.60;2099.20;;;;;;5093391;28;20027;-51
2021/07/18 02:50:29;;;;;;;4.78;3.47;;;589.60;2099.20;;;;;;5093369;28;20039;-51
2021/07/18 02:52:55;;;;;;;5.38;3.72;;;589.60;2099.20;;;;;;5093440;28;20043;-51
2021/07/18 02:55:22;;;;;;;7.05;3.20;;;589.50;2099.20;;;;;;5093549;28;20024;-51
2021/07/18 02:57:48;;;;;;;3.70;2.83;;;589.50;2073.60;;;;;;5093377;28;20024;-51
2021/07/18 03:00:21;;;;;;;3.65;3.35;;;589.30;2099.20;;;;;;5093746;28;20107;-55
2021/07/18 03:02:47;;;;;;;5.13;3.38;;;589.40;2099.20;;;;;;5092115;28;20427;-56
2021/07/18 03:05:14;;;;;;;5.03;2.70;;;589.50;2073.60;;;;;;5093576;28;20104;-51
2021/07/18 03:07:40;;;;;;;6.55;3.28;;;589.30;2073.60;;;;;;5093585;28;20487;-51
2021/07/18 03:10:09;;;;;;;5.35;3.00;;;589.30;2099.20;;;;;;5093253;28;20032;-51
2021/07/18 03:12:35;;;;;;;6.57;3.03;;;589.10;2099.20;;;;;;5093282;28;20020;-51
2021/07/18 03:15:04;;;;;;;8.85;3.17;;;589.20;2099.20;;;;;;5096548;28;20085;-51
2021/07/18 03:17:29;;;;;;;6.40;3.35;;;589.20;2099.20;;;;;;5097403;28;20424;-51
2021/07/18 03:19:57;;;;;;;3.80;3.40;;;589.20;2099.20;;;;;;5097068;28;20031;-55
2021/07/18 03:22:24;;;;;;;6.57;3.00;;;589.20;2099.20;;;;;;5097042;28;20020;-51
2021/07/18 03:24:50;;;;;;;3.90;3.38;;;589.30;2099.20;;;;;;5097034;28;20027;-51
2021/07/18 03:27:16;;;;;;;4.15;3.38;;;589.30;2099.20;;;;;;5096706;28;20111;-51
2021/07/18 03:29:42;;;;;;;5.45;3.70;;;589.30;2099.20;;;;;;5096778;28;20397;-51
2021/07/18 03:32:08;;;;;;;6.97;4.18;;;589.30;2099.20;;;;;;5097098;28;20023;-51
2021/07/18 03:34:34;;;;;;;13.13;6.20;;;589.40;2073.60;;;;;;5097076;28;20464;-51
2021/07/18 03:37:00;;;;;;;10.18;6.30;;;589.40;2073.60;;;;;;5096735;28;20021;-51
2021/07/18 03:39:25;;;;;;;13.52;6.63;;;589.50;2073.60;;;;;;5096732;28;20020;-51
2021/07/18 03:41:51;;;;;;;12.98;6.30;;;589.50;2073.60;;;;;;5096660;28;20377;-51
2021/07/18 03:44:17;;;;;;;11.38;5.50;;;589.50;2073.60;;;;;;5096646;28;20544;-51
2021/07/18 03:46:43;;;;;;;11.10;5.90;;;589.50;2073.60;;;;;;5096599;28;20110;-52
2021/07/18 03:49:10;;;;;;;9.18;4.80;;;589.40;2099.20;;;;;;5096652;28;20032;-51
2021/07/18 03:51:36;;;;;;;10.30;5.28;;;589.40;2073.60;;;;;;5096494;28;20437;-55
2021/07/18 03:54:02;;;;;;;9.20;5.18;;;589.50;2073.60;;;;;;5096417;28;20052;-51
2021/07/18 03:56:28;;;;;;;6.53;4.28;;;589.50;2073.60;;;;;;5096418;28;20020;-56
2021/07/18 03:58:54;;;;;;;9.25;4.65;;;589.50;2073.60;;;;;;5096595;28;20059;-51
2021/07/18 04:01:20;;;;;;;8.20;3.95;;;589.30;2124.80;;;;;;5096334;28;20020;-51
2021/07/18 04:03:47;;;;;;;8.50;4.13;;;589.30;2099.20;;;;;;5095060;28;20028;-55
2021/07/18 04:06:14;;;;;;;9.77;5.15;;;589.30;2099.20;;;;;;5094933;28;20027;-51
2021/07/18 04:08:41;;;;;;;12.88;9.13;;;589.40;2099.20;;;;;;5096146;28;20077;-51
2021/07/18 04:11:07;;;;;;;14.02;9.05;;;589.40;2099.20;;;;;;5096395;28;20024;-51
2021/07/18 04:13:34;;;;;;;14.60;8.32;;;589.40;2099.20;;;;;;5096148;28;20024;-51
2021/07/18 04:15:59;;;;;;;8.27;5.35;;;589.40;2099.20;;;;;;5096054;28;20028;-51
2021/07/18 04:18:25;;;;;;;5.88;3.80;;;589.40;2099.20;;;;;;5096557;28;20020;-56
2021/07/18 04:20:51;;;;;;;9.98;3.85;;;589.40;2099.20;;;;;;5095917;28;20020;-52
2021/07/18 04:23:17;;;;;;;6.13;3.85;;;589.40;2099.20;;;;;;5096116;28;20345;-51
2021/07/18 04:25:44;;;;;;;4.55;3.22;;;589.50;2073.60;;;;;;5095312;28;20068;-51
2021/07/18 04:28:10;;;;;;;16.42;9.63;;;589.50;2099.20;;;;;;5095705;28;20040;-51
2021/07/18 04:30:38;;;;;;;11.77;7.80;;;589.40;2099.20;;;;;;5095610;28;20537;-51
2021/07/18 04:33:04;;;;;;;24.73;14.25;;;589.50;2099.20;;;;;;5096000;28;20058;-51
2021/07/18 04:35:30;;;;;;;14.23;9.65;;;589.50;2099.20;;;;;;5095672;28;20028;-51
2021/07/18 04:37:56;;;;;;;6.10;4.15;;;589.50;2099.20;;;;;;5095614;28;20023;-51
2021/07/18 04:40:22;;;;;;;5.65;3.40;;;589.50;2099.20;;;;;;5095481;28;20357;-51
2021/07/18 04:42:48;;;;;;;4.78;3.80;;;589.50;2073.60;;;;;;5095497;28;20020;-51
2021/07/18 04:45:14;;;;;;;6.45;3.83;;;589.40;2099.20;;;;;;5095314;28;20111;-55
2021/07/18 04:47:59;;;;;;;5.30;3.55;;;589.30;2099.20;;;;;;5095423;28;20016;-51
2021/07/18 04:50:26;;;;;;;7.40;4.30;;;589.40;2099.20;;;;;;5095926;28;20093;-51
2021/07/18 04:52:53;;;;;;;9.77;5.68;;;589.50;2099.20;;;;;;5095820;28;20043;-52
2021/07/18 04:55:19;;;;;;;11.60;8.25;;;589.50;2099.20;;;;;;5095293;28;20099;-51
2021/07/18 04:57:46;;;;;;;12.60;6.88;;;589.50;2099.20;;;;;;5095247;28;20024;-55
2021/07/18 05:00:18;;;;;;;10.77;4.80;;;589.50;2124.80;;;;;;5095220;28;20024;-51
2021/07/18 05:02:44;;;;;;;5.07;3.78;;;589.40;2124.80;;;;;;5095428;28;20016;-55
2021/07/18 05:05:11;;;;;;;5.65;3.53;;;589.40;2099.20;;;;;;5093778;28;20443;-51
2021/07/18 05:08:03;;;;;;;8.02;4.25;;;589.50;2099.20;;;;;;5094520;28;20373;-56
2021/07/18 05:10:29;;;;;;;9.43;6.00;;;589.50;2124.80;;;;;;5091311;28;20400;-51
2021/07/18 05:12:57;;;;;;;8.38;5.47;;;589.60;2099.20;;;;;;5094907;28;20016;-51
2021/07/18 05:15:24;;;;;;;7.75;4.88;;;589.60;2124.80;;;;;;5095166;28;20414;-51
2021/07/18 05:17:50;;;;;;;6.97;4.28;;;589.60;2124.80;;;;;;5095257;28;20085;-56
2021/07/18 05:20:21;;;;;;;5.20;4.68;;;589.60;2124.80;;;;;;5095066;28;20377;-51
2021/07/18 05:22:47;;;;;;;5.50;4.72;;;589.60;2124.80;;;;;;5095417;28;20086;-53
2021/07/18 05:25:13;;;;;;;4.80;4.18;;;589.60;2150.40;;;;;;5094819;28;20499;-51
2021/07/18 05:27:40;;;;;;;7.13;4.45;;;589.60;2124.80;;;;;;5094381;28;20055;-51
2021/07/18 05:30:10;;;;;;;5.75;5.15;;;589.50;2176.00;;;;;;5094419;28;20546;-51
2021/07/18 05:32:36;;;;;;;5.43;4.55;;;589.60;2176.00;;;;;;5094445;28;20034;-51
2021/07/18 05:35:04;;;;;;;6.95;4.47;;;589.60;2150.40;;;;;;5094810;28;20362;-51
2021/07/18 05:37:30;;;;;;;5.10;4.60;;;589.60;2124.80;;;;;;5094054;28;20067;-51
2021/07/18 05:39:56;;;;;;;10.52;5.28;;;589.60;2124.80;;;;;;5094660;28;20052;-51
2021/07/18 05:42:22;;;;;;;5.68;5.13;;;589.60;2150.40;;;;;;5094594;28;20020;-51
2021/07/18 05:44:48;;;;;;;7.85;4.93;;;589.60;2124.80;;;;;;5094292;28;20058;-56
2021/07/18 05:47:14;;;;;;;9.23;5.55;;;589.60;2150.40;;;;;;5094271;28;20048;-51
2021/07/18 05:49:40;;;;;;;9.00;5.93;;;589.60;2124.80;;;;;;5094257;28;20107;-51
2021/07/18 05:52:06;;;;;;;8.02;6.18;;;589.60;2150.40;;;;;;5094187;28;20024;-51
2021/07/18 05:54:32;;;;;;;8.18;6.15;;;589.60;2150.40;;;;;;5094133;28;20027;-52
2021/07/18 05:56:58;;;;;;;8.40;6.63;;;589.60;2176.00;;;;;;5094450;28;20024;-51
2021/07/18 05:59:23;;;;;;;8.18;6.97;;;589.60;2124.80;;;;;;5094618;28;20128;-51
2021/07/18 06:01:49;;;;;;;9.52;6.85;;;589.70;2150.40;;;;;;5094108;28;20047;-56
2021/07/18 06:04:16;;;;;;;8.38;6.38;;;589.60;2150.40;;;;;;5093923;28;20529;-51
2021/07/18 06:06:42;;;;;;;10.32;6.28;;;589.60;2150.40;;;;;;5094264;28;20020;-51
2021/07/18 06:09:08;;;;;;;8.95;6.80;;;589.70;2150.40;;;;;;5093855;28;20020;-51
2021/07/18 06:11:34;;;;;;;9.13;6.65;;;614.40;2124.80;;;;;;5094174;28;20039;-51
2021/07/18 06:14:01;;;;;;;10.73;7.53;;;614.40;2124.80;;;;;;5093894;28;20020;-51
2021/07/18 06:16:27;;;;;;;8.02;6.63;;;614.40;2124.80;;;;;;5093854;28;20019;-51
2021/07/18 06:18:53;;;;;;;11.80;8.07;;;614.40;2124.80;;;;;;5094083;28;20016;-52
2021/07/18 06:21:20;;;;;;;11.80;7.50;;;614.40;2124.80;;;;;;5093661;28;20381;-51
2021/07/18 06:23:45;;;;;;;10.52;7.57;;;614.40;2124.80;;;;;;5093740;28;20052;-55
2021/07/18 06:26:12;;;;;;;9.35;7.10;;;614.50;2124.80;;;;;;5093544;28;20063;-51
2021/07/18 06:28:38;;;;;;;11.57;7.82;;;614.50;2124.80;;;;;;5093671;28;20065;-55
2021/07/18 06:31:04;;;;;;;10.80;8.82;;;614.50;2124.80;;;;;;5093804;28;20036;-51
2021/07/18 06:33:30;;;;;;;12.82;9.43;;;614.50;2124.80;;;;;;5093623;28;20100;-51
2021/07/18 06:35:56;;;;;;;12.95;9.52;;;614.50;2150.40;;;;;;5093733;28;20056;-51
2021/07/18 06:38:22;;;;;;;12.15;9.35;;;614.50;2124.80;;;;;;5093574;28;20024;-51
2021/07/18 06:40:47;;;;;;;13.77;8.68;;;614.50;2124.80;;;;;;5093584;28;20024;-56
2021/07/18 06:43:14;;;;;;;15.07;8.65;;;614.60;2150.40;;;;;;5093799;28;20464;-51
2021/07/18 06:45:40;;;;;;;11.68;8.30;;;614.60;2099.20;;;;;;5093454;28;20533;-51
2021/07/18 06:48:06;;;;;;;10.88;8.23;;;614.60;2124.80;;;;;;5095435;28;20016;-51
2021/07/18 06:50:33;;;;;;;12.63;7.70;;;614.70;2124.80;;;;;;5097616;28;20477;-51
2021/07/18 06:52:59;;;;;;;11.48;8.63;;;614.70;2124.80;;;;;;5097650;28;20099;-51
2021/07/18 06:55:25;;;;;;;10.52;8.18;;;614.70;2124.80;;;;;;5097844;28;20421;-51
2021/07/18 06:57:52;;;;;;;14.35;8.80;;;614.70;2124.80;;;;;;5097749;28;20063;-51
2021/07/18 07:00:20;;;;;;;13.38;9.00;;;614.70;2124.80;;;;;;5097530;28;20511;-51
2021/07/18 07:02:46;;;;;;;9.80;8.02;;;614.80;2124.80;;;;;;5098040;28;20028;-56
2021/07/18 07:05:13;;;;;;;11.50;8.65;;;614.80;2124.80;;;;;;5097280;28;20024;-51
2021/07/18 07:07:46;;;;;;;10.25;8.20;;;614.80;2099.20;;;;;;5097379;28;20028;-51
2021/07/18 07:10:16;;;;;;;11.10;8.88;;;614.80;2099.20;;;;;;5097486;28;20043;-51
2021/07/18 07:12:42;;;;;;;12.63;9.75;;;614.80;2099.20;;;;;;5097589;28;20081;-51
2021/07/18 07:15:09;;;;;;;12.77;8.25;;;614.80;2099.20;;;;;;5097137;28;20028;-51
2021/07/18 07:17:36;;;;;;;12.45;8.68;;;614.90;2099.20;;;;;;5097145;28;20020;-51
2021/07/18 07:20:04;;;;;;;11.77;8.65;;;614.90;2099.20;;;;;;5097098;28;20481;-51
2021/07/18 07:22:30;;;;;;;8.32;7.32;;;614.90;2124.80;;;;;;5096968;28;20060;-51
2021/07/18 07:24:56;;;;;;;12.07;8.60;;;614.90;2099.20;;;;;;5096963;28;20089;-56
2021/07/18 07:27:22;;;;;;;10.48;8.60;;;614.90;2099.20;;;;;;5096851;28;20494;-51
2021/07/18 07:29:48;;;;;;;13.57;9.23;;;614.90;2099.20;;;;;;5097118;28;20036;-55
2021/07/18 07:32:14;;;;;;;10.13;8.30;;;615.00;2099.20;;;;;;5095574;28;20031;-51
2021/07/18 07:34:40;;;;;;;9.43;8.10;;;615.00;2124.80;;;;;;5096787;28;20493;-56
2021/07/18 07:37:05;;;;;;;10.27;8.38;;;615.10;2124.80;;;;;;5096991;28;20024;-56
2021/07/18 07:39:31;;;;;;;10.07;8.52;;;615.20;2073.60;;;;;;5096701;28;20029;-51
2021/07/18 07:41:57;;;;;;;12.85;9.70;;;615.20;2073.60;;;;;;5096630;28;20500;-51
2021/07/18 07:44:23;;;;;;;19.20;10.60;;;615.30;2073.60;;;;;;5096650;28;20158;-52
2021/07/18 07:46:49;;;;;;;14.60;10.52;;;615.30;2048.00;;;;;;5096609;28;20089;-51
2021/07/18 07:49:15;;;;;;;15.88;12.68;;;640.00;2048.00;;;;;;5096501;28;20028;-51
2021/07/18 07:51:41;;;;;;;20.17;15.80;;;640.10;2022.40;;;;;;5096488;28;20030;-51
2021/07/18 07:54:07;;;;;;;24.00;17.83;;;640.10;2022.40;;;;;;5096426;28;20020;-51
2021/07/18 07:56:33;;;;;;;24.15;20.15;;;640.30;2048.00;;;;;;5096383;28;20472;-51
2021/07/18 07:58:58;;;;;;;41.30;31.83;;;640.30;2022.40;;;;;;5095357;28;20032;-56
2021/07/18 08:01:24;;;;;;;35.08;27.73;;;640.50;1996.80;;;;;;5096237;28;20027;-52
2021/07/18 08:03:51;;;;;;;30.80;25.80;;;640.50;1996.80;;;;;;5096274;28;20012;-56
2021/07/18 08:06:17;;;;;;;19.65;17.55;;;640.60;1996.80;;;;;;5094956;28;20028;-56
2021/07/18 08:08:43;;;;;;;23.48;17.98;;;640.60;1971.20;;;;;;5096300;28;20047;-52
2021/07/18 08:11:09;;;;;;;25.50;16.20;;;640.70;1996.80;;;;;;5095979;28;20115;-56
2021/07/18 08:13:36;;;;;;;20.80;15.77;;;640.80;1971.20;;;;;;5095502;28;20021;-56
2021/07/18 08:16:03;;;;;;;16.55;12.80;;;640.80;1945.60;;;;;;5095583;28;20035;-56
2021/07/18 08:18:30;;;;;;;15.57;11.57;;;640.90;1945.60;;;;;;5095312;28;20028;-56
2021/07/18 08:20:56;;;;;;;20.73;15.25;;;665.60;1971.20;;;;;;5094831;28;20020;-51
2021/07/18 08:23:21;;;;;;;16.90;13.88;;;665.60;1971.20;;;;;;5095452;28;20043;-51
2021/07/18 08:25:48;;;;;;;15.68;12.73;;;665.60;1971.20;;;;;;5094778;28;20384;-51
2021/07/18 08:28:13;;;;;;;16.23;13.07;;;665.70;1971.20;;;;;;5094654;28;20047;-51
2021/07/18 08:30:42;;;;;;;18.90;13.27;;;665.80;1971.20;;;;;;5095025;28;20036;-51
2021/07/18 08:33:08;;;;;;;12.15;9.13;;;665.80;1945.60;;;;;;5094667;28;20998;-53
2021/07/18 08:35:34;;;;;;;10.52;8.32;;;665.80;1971.20;;;;;;5095119;28;20118;-56
2021/07/18 08:37:59;;;;;;;9.50;8.27;;;665.90;1945.60;;;;;;5095039;28;20099;-51
2021/07/18 08:40:25;;;;;;;11.38;5.90;;;666.00;1945.60;;;;;;5095602;28;20027;-50
2021/07/18 08:42:51;;;;;;;8.45;5.85;;;666.00;1920.00;;;;;;5096294;28;20055;-51
2021/07/18 08:45:17;;;;;;;8.80;6.00;;;666.00;1920.00;;;;;;5095534;28;20517;-51
2021/07/18 08:47:43;;;;;;;7.80;4.80;;;666.00;1920.00;;;;;;5095144;28;20032;-51
2021/07/18 08:50:10;;;;;;;18.75;7.53;;;666.00;1920.00;;;;;;5095583;28;20381;-50
2021/07/18 08:52:36;;;;;;;6.45;4.38;;;666.00;1894.40;;;;;;5095328;28;20012;-51
2021/07/18 08:55:03;;;;;;;6.10;4.40;;;666.00;1894.40;;;;;;5095262;28;20556;-52
2021/07/18 08:57:31;;;;;;;6.85;5.43;;;666.00;1894.40;;;;;;5095550;28;20449;-51
2021/07/18 08:59:57;;;;;;;22.55;15.32;;;666.00;1920.00;;;;;;5095138;28;20047;-50
2021/07/18 09:02:23;;;;;;;21.83;13.35;;;666.00;1920.00;;;;;;5095387;28;20063;-51
2021/07/18 09:04:49;;;;;;;89.47;54.88;;;666.10;1945.60;;;;;;5095074;28;20027;-50
2021/07/18 09:07:18;;;;;;;21.05;15.02;;;666.00;1920.00;;;;;;5095046;28;20028;-51
2021/07/18 09:09:45;;;;;;;14.68;8.65;;;666.00;1920.00;;;;;;5094631;28;20114;-50
2021/07/18 09:12:13;;;;;;;13.98;10.35;;;666.10;1894.40;;;;;;5094627;28;20085;-50
2021/07/18 09:14:45;;;;;;;10.82;5.68;;;666.20;1868.80;;;;;;5091584;28;20024;-51
2021/07/18 09:17:13;;;;;;;15.88;9.48;;;666.30;1868.80;;;;;;5092313;28;20016;-50
2021/07/18 09:19:41;;;;;;;35.90;22.98;;;666.30;1894.40;;;;;;5094385;28;20102;-50
2021/07/18 09:22:10;;;;;;;23.05;14.05;;;666.30;1894.40;;;;;;5091695;28;20016;-56
2021/07/18 09:24:46;;;;;;;21.52;14.15;;;666.30;1868.80;;;;;;5094344;28;20016;-56
2021/07/18 09:27:15;;;;;;;5.68;4.55;;;666.40;1894.40;;;;;;5092060;28;20072;-51
2021/07/18 09:29:47;;;;;;;5.07;4.03;;;666.40;1894.40;;;;;;5094121;28;20032;-51
2021/07/18 09:32:16;;;;;;;5.07;3.95;;;666.40;1868.80;;;;;;5092498;28;20020;-51
2021/07/18 09:34:47;;;;;;;12.73;7.22;;;666.40;1894.40;;;;;;5094529;28;20139;-51
2021/07/18 09:37:17;;;;;;;16.13;10.20;;;666.50;1868.80;;;;;;5094502;28;20020;-51
2021/07/18 09:39:49;;;;;;;19.50;9.52;;;666.50;1868.80;;;;;;5094733;28;20023;-56
2021/07/18 09:42:51;;;;;;;4.90;4.40;;;691.20;1868.80;;;;;;5094770;28;20388;-56
2021/07/18 09:45:30;;;;;;;6.18;4.35;;;691.20;1894.40;;;;;;5011710;28;20030;-51
2021/07/18 09:48:00;;;;;;;7.28;3.58;;;691.20;1868.80;;;;;;5010250;28;20533;-51
2021/07/18 09:50:30;;;;;;;6.40;2.90;;;691.30;1817.60;;;;;;5011578;28;20125;-56
2021/07/18 09:53:06;;;;;;;13.18;5.80;;;691.30;1817.60;;;;;;5011588;28;20022;-52
2021/07/18 09:55:32;;;;;;;6.10;3.92;;;691.30;1817.60;;;;;;5011724;28;20038;-52
2021/07/18 09:57:58;;;;;;;7.13;3.30;;;691.30;1843.20;;;;;;5011612;28;20088;-52
2021/07/18 10:00:42;;;;;;;3.38;2.80;;;691.40;1817.60;;;;;;5011783;28;20026;-52
2021/07/18 10:03:12;;;;;;;4.53;3.50;;;691.40;1792.00;;;;;;5011645;28;20064;-52
2021/07/18 10:05:38;;;;;;;4.57;3.80;;;691.40;1817.60;;;;;;5011599;28;20030;-52
2021/07/18 10:08:10;;;;;;;8.25;4.80;;;691.40;1843.20;;;;;;5011853;28;20036;-52
2021/07/18 10:10:37;;;;;;;8.73;4.47;;;691.40;1843.20;;;;;;5011963;28;20033;-52
2021/07/18 10:13:04;;;;;;;10.45;6.35;;;691.50;1843.20;;;;;;5011889;28;20410;-52
2021/07/18 10:15:32;;;;;;;4.88;3.42;;;691.50;1843.20;;;;;;5012093;28;20513;-51
2021/07/18 10:17:58;;;;;;;7.57;4.78;;;691.50;1817.60;;;;;;5012243;28;20169;-52
2021/07/18 10:20:25;;;;;;;7.82;4.55;;;691.50;1843.20;;;;;;5014114;28;20026;-52
2021/07/18 10:22:55;;;;;;;6.97;5.03;;;691.60;1792.00;;;;;;5093281;28;20051;-52
2021/07/18 10:25:24;;;;;;;6.57;4.38;;;691.60;1792.00;;;;;;5093732;28;20032;-52
2021/07/18 10:27:51;;;;;;;10.23;5.05;;;691.60;1817.60;;;;;;5093498;28;20072;-52
2021/07/18 10:30:20;;;;;;;8.88;5.45;;;691.70;1817.60;;;;;;5093866;28;20032;-52
2021/07/18 10:32:50;;;;;;;6.10;4.13;;;691.70;1817.60;;;;;;5093670;28;20023;-51
2021/07/18 10:35:19;;;;;;;6.20;4.72;;;691.70;1817.60;;;;;;5093980;28;20028;-52
2021/07/18 10:37:45;;;;;;;6.13;4.93;;;691.70;1843.20;;;;;;5093561;28;20028;-52
2021/07/18 10:40:13;;;;;;;9.73;5.88;;;691.80;1843.20;;;;;;5093867;28;20376;-52
2021/07/18 10:42:40;;;;;;;6.15;4.70;;;691.80;1792.00;;;;;;5093561;28;20033;-52
2021/07/18 10:45:21;;;;;;;11.00;5.53;;;691.80;1843.20;;;;;;5093527;28;20047;-52
2021/07/18 10:48:03;;;;;;;6.93;5.38;;;691.80;1792.00;;;;;;5093500;28;20016;-51
2021/07/18 10:50:50;;;;;;;7.40;5.00;;;691.90;1817.60;;;;;;5093424;28;20028;-51
2021/07/18 10:53:25;;;;;;;7.40;4.55;;;691.90;1843.20;;;;;;5093753;28;20099;-52
2021/07/18 10:55:53;;;;;;;7.18;5.20;;;691.90;1843.20;;;;;;5093464;28;20073;-52
2021/07/18 10:58:46;;;;;;;7.40;5.43;;;692.00;1792.00;;;;;;5093429;28;20017;-52
2021/07/18 11:01:12;;;;;;;6.07;5.18;;;692.00;1792.00;;;;;;5090434;28;20055;-52
2021/07/18 11:03:42;;;;;;;9.77;6.05;;;692.00;1843.20;;;;;;5093595;28;20473;-52
2021/07/18 11:06:34;;;;;;;8.35;5.28;;;692.10;1817.60;;;;;;5093884;28;20020;-52
2021/07/18 11:09:06;;;;;;;7.35;5.75;;;692.10;1766.40;;;;;;5093271;28;20105;-52
2021/07/18 11:11:55;;;;;;;8.15;5.60;;;692.00;1817.60;;;;;;5093482;28;20039;-52
2021/07/18 11:14:36;;;;;;;7.20;5.53;;;716.80;1817.60;;;;;;5093591;28;20020;-52
2021/07/18 11:17:07;;;;;;;7.20;5.20;;;716.80;1843.20;;;;;;5093792;28;20020;-53
2021/07/18 11:19:37;;;;;;;6.18;5.57;;;716.80;1792.00;;;;;;5093273;28;20016;-51
2021/07/18 11:22:13;;;;;;;6.03;5.13;;;716.80;1843.20;;;;;;5093415;28;20028;-52
2021/07/18 11:24:57;;;;;;;9.77;4.95;;;716.80;1843.20;;;;;;5093163;28;20016;-52
2021/07/18 11:27:33;;;;;;;7.75;5.55;;;716.90;1817.60;;;;;;5092933;28;20051;-52
2021/07/18 11:30:03;;;;;;;7.05;5.68;;;716.90;1843.20;;;;;;5093384;28;20036;-52
2021/07/18 11:32:31;;;;;;;5.72;5.13;;;716.90;1766.40;;;;;;5093045;28;20069;-52
2021/07/18 11:34:58;;;;;;;7.25;5.68;;;716.90;1792.00;;;;;;5094881;28;20140;-52
2021/07/18 11:37:26;;;;;;;8.45;6.45;;;716.90;1792.00;;;;;;5096779;28;20042;-51
2021/07/18 11:40:04;;;;;;;7.45;5.65;;;716.90;1843.20;;;;;;5096770;28;20103;-52
2021/07/18 11:42:30;;;;;;;7.47;6.03;;;717.00;1792.00;;;;;;5096726;28;20024;-52
2021/07/18 11:44:56;;;;;;;6.55;5.85;;;717.00;1766.40;;;;;;5096745;28;20107;-52
2021/07/18 11:47:27;;;;;;;6.85;5.85;;;717.00;1792.00;;;;;;5096629;28;20140;-52
2021/07/18 11:49:53;;;;;;;9.80;5.35;;;717.00;1792.00;;;;;;5096846;28;20032;-51
2021/07/18 11:52:22;;;;;;;8.18;5.95;;;717.00;1792.00;;;;;;5096580;28;20023;-55
2021/07/18 11:54:48;;;;;;;8.25;5.70;;;717.10;1766.40;;;;;;5096463;28;20020;-56
2021/07/18 11:57:17;;;;;;;6.28;5.30;;;717.10;1792.00;;;;;;5096706;28;20032;-55
2021/07/18 11:59:46;;;;;;;10.88;5.75;;;717.20;1792.00;;;;;;5096680;28;20035;-51
2021/07/18 12:02:13;;;;;;;9.00;6.22;;;717.30;1792.00;;;;;;5097206;28;20028;-51
2021/07/18 12:04:40;;;;;;;7.40;5.63;;;717.40;1792.00;;;;;;5096331;28;20032;-51
2021/07/18 12:07:08;;;;;;;8.88;5.78;;;717.40;1792.00;;;;;;5096231;28;20403;-50
2021/07/18 12:09:37;;;;;;;9.00;6.20;;;717.50;1792.00;;;;;;5096147;28;20028;-50
2021/07/18 12:12:06;;;;;;;7.57;6.65;;;717.60;1792.00;;;;;;5096417;28;20378;-51
2021/07/18 12:14:35;;;;;;;7.50;5.90;;;717.60;1766.40;;;;;;5096339;28;20020;-51
2021/07/18 12:17:06;;;;;;;7.90;6.25;;;717.60;1792.00;;;;;;5096331;28;20480;-51